Tiempo atmosférico en la estación meteorológica de Carmona, Sevilla (50 m.)



Fecha
DESCASC
Temp. máxima en grados centígrados (hora)
DESCASC
Temp. mínima en grados centígrados (hora)
DESCASC
Temp. media en grados centígrados
DESCASC
Racha de viento máxima en m/sg (hora)
DESCASC
Velocidad máxima media en intervalos de 10 minutos(hora)
DESCASC
Precipitaciones diarias en mm
DESCASC
Precipitaciones de 00:00 a 06:00 en mm
DESCASC
Precipitaciones de 06:00 a 12:00 en mm
DESCASC
Precipitaciones de 12:00 a 18:00 en mm
DESCASC
Precipitaciones de 18:00 a 24:00 en mm
DESCASC
28-02-2021 19.7 (15:30) 8.6 (07:20) 14.2 10.28 (14:20) 6.39 (16:20) 0 0 0 0 0
27-02-2021 17.2 (15:40) 7 (07:40) 12.1 7.78 (11:50) 5.28 (11:40) 0 0 0 0 0
26-02-2021 19.4 (14:30) 10 (23:59) 14.7 7.5 (11:50) 5 (11:50) 0 0 0 0 0
25-02-2021 18.8 (15:30) 9.5 (00:00) 14.1 8.89 (09:10) 5.56 (09:20) 0 0 0 0 0
24-02-2021 19.4 (15:10) 7.3 (00:00) 13.3 15.83 (13:50) 10.83 (12:50) 0 0 0 0 0
23-02-2021 18.9 (17:00) 5.2 (00:00) 12 9.44 (11:10) 6.39 (11:10) 0 0 0 0 0
22-02-2021 16.7 (16:40) 3.7 (00:00) 10.2 8.61 (15:30) 4.72 (00:30) 0 0 0 0 0
21-02-2021 15.8 (04:20) 9.4 (00:00) 12.6 10.28 (12:30) 6.11 (13:00) 6.8 0 3.6 3.2 0
20-02-2021 22.2 (15:50) 7.6 (00:00) 14.9 9.17 (16:00) 5.28 (16:40) 0 0 0 0 0
19-02-2021 17.4 (16:30) 8.6 (00:00) 13 6.67 (16:20) 4.72 (16:20) 0 0 0 0 0
18-02-2021 17.6 (17:50) 6.3 (00:00) 12 3.61 (15:40) 2.22 (23:30) 0 0 0 0 0
17-02-2021 23.6 (16:50) 6.4 (00:00) 15 7.5 (12:10) 5 (12:10) 0 0 0 0 0
16-02-2021 21.3 (16:30) 6.4 (00:00) 13.8 7.5 (11:00) 5 (10:50) 0 0 0 0 0
15-02-2021 21.2 (16:00) 9.7 (00:00) 15.5 10.83 (10:10) 7.22 (09:40) 0 0 0 0 0
14-02-2021 21.8 (16:30) 5.8 (00:00) 13.8 12.22 (11:50) 8.33 (11:40) 0 0 0 0 0
13-02-2021 19.4 (17:10) 6.5 (00:00) 12.9 4.72 (14:30) 3.06 (13:10) 0 0 0 0 0
12-02-2021 20.6 (17:30) 10.5 (00:00) 15.6 6.11 (07:00) 4.17 (11:10) 0.4 0 0.4 0 0
11-02-2021 17.5 (16:30) 13.8 (00:00) 15.7 6.94 (01:10) 4.72 (01:20) 0 0 0 0 0
10-02-2021 18 (14:10) 11.8 (00:00) 14.9 14.72 (10:10) 8.89 (10:10) 0.4 0 0.4 0 0
09-02-2021 15.6 (12:10) 10.2 (00:00) 12.9 15.83 (13:20) 9.72 (13:20) 5.2 0.2 0.2 3.8 1
08-02-2021 16 (14:00) 10.2 (00:00) 13.1 18.89 (05:50) 12.22 (05:50) 11.2 10.4 0 0.8 0
07-02-2021 15.1 (15:00) 9.8 (00:00) 12.5 10.56 (16:20) 8.33 (16:20) 0.2 0.2 0 0 0
06-02-2021 14.5 (15:00) 10.1 (00:00) 12.3 11.11 (15:50) 7.22 (15:50) 1.6 1.6 0 0 0
05-02-2021 14.9 (15:00) 10.6 (00:00) 12.8 8.61 (19:50) 4.72 (20:10) 5.4 0 0 4.8 0.6
04-02-2021 18.5 (14:50) 12.4 (00:00) 15.4 7.22 (13:40) 3.89 (14:00) 0 0 0 0 0
03-02-2021 17.4 (14:40) 11 (00:00) 14.2 3.89 (00:40) 2.5 (00:40) 0 0 0 0 0
02-02-2021 17.6 (17:20) 8.6 (03:40) 13.1 5.83 (09:00) 3.89 (09:00) 0 0 0 0 0
01-02-2021 18.3 (16:30) 11.1 (00:00) 14.7 9.17 (02:30) 5.83 (02:30) 0.8 0.6 0 0.2 0

Gráficas

Temp. máximas Temp. mínimas Temp. medias Precipitaciones Rachas de viento máximas Velocidades máximas media en intervalos de 10 minutos

Datos horarios

Fecha y hora oficial Temperatura (ºC) Velocidad del viento (km/h) Dirección del viento Racha (km/h) Dirección de racha Precipitación (mm) Presión (hPa) Tendencia (hPa) Humedad (%)
2021-03-02 23:00:00 13.9 5 Norte 9 Norte 0 -- -- 77
2021-03-02 22:00:00 15.1 5 Nordeste 8 Norte 0 -- -- 76
2021-03-02 21:00:00 15.7 5 Sur 9 Sur 0 -- -- 72
2021-03-02 20:00:00 17.1 7 Sudeste 9 Sudeste 0 -- -- 70
2021-03-02 19:00:00 20.3 3 Sudoeste 7 Sur 0 -- -- 55
2021-03-02 18:00:00 20.6 5 Sur 10 Sudeste 0 -- -- 52
2021-03-02 17:00:00 21.3 3 Sur 12 Nordeste 0 -- -- 50
2021-03-02 16:00:00 21.8 5 Este 11 Noroeste 0 -- -- 48
2021-03-02 15:00:00 20.6 6 Oeste 11 Nordeste 0 -- -- 52
2021-03-02 14:00:00 20.1 4 Noroeste 10 Noroeste 0 -- -- 55
2021-03-02 13:00:00 19.2 6 Este 19 Este 0 -- -- 58
2021-03-02 12:00:00 18 12 Este 20 Sudeste 0 -- -- 65
2021-03-02 11:00:00 16.3 10 Este 17 Este 0 -- -- 71
2021-03-02 10:00:00 13.1 8 Este 13 Este 0 -- -- 87
2021-03-02 09:00:00 10.6 5 Este 10 Sudeste 0 -- -- 91
2021-03-02 08:00:00 10.1 5 Este 7 Este 0 -- -- 90
2021-03-02 07:00:00 10.9 2 Nordeste 6 Norte 0 -- -- 90
2021-03-02 06:00:00 11.4 4 Sudeste 6 Sudeste 0 -- -- 89
2021-03-02 05:00:00 12.2 6 Sudeste 8 Sudeste 0 -- -- 89
2021-03-02 04:00:00 12.6 0 Calma 14 Noroeste 0.4 -- -- 87
2021-03-02 03:00:00 13.5 11 Noroeste 15 Noroeste 0 -- -- 84
2021-03-02 02:00:00 13.8 3 Oeste 10 Sudoeste 0 -- -- 82
2021-03-02 01:00:00 13.4 3 Sur 10 Oeste 0 -- -- 80
2021-03-02 00:00:00 12.9 9 Sudoeste 13 Sudoeste 0 -- -- 83
2021-03-01 23:00:00 13.8 5 Norte 6 Norte 0 -- -- 77
2021-03-01 22:00:00 15 3 Norte 5 Norte 0 -- -- 73
2021-03-01 21:00:00 16 3 Norte 5 Norte 0 -- -- 73
2021-03-01 20:00:00 16.9 0 Calma 6 Este 0 -- -- 68
2021-03-01 19:00:00 18 5 Este 11 Este 0 -- -- 57
2021-03-01 18:00:00 19 6 Este 19 Nordeste 0 -- -- 52
2021-03-01 17:00:00 19.6 10 Sudeste 20 Sudeste 0 -- -- 49
2021-03-01 16:00:00 20.1 6 Este 20 Este 0 -- -- 45
2021-03-01 15:00:00 20.2 8 Este 24 Este 0 -- -- 45
2021-03-01 14:00:00 19.3 17 Este 30 Este 0 -- -- 52
2021-03-01 13:00:00 17.9 17 Este 31 Nordeste 0 -- -- 59
2021-03-01 12:00:00 16.9 19 Este 31 Este 0 -- -- 63
2021-03-01 11:00:00 15 19 Este 29 Este 0 -- -- 69
2021-03-01 10:00:00 12.8 14 Este 22 Este 0 -- -- 81
2021-03-01 09:00:00 11.1 7 Este 13 Este 0 -- -- 89
2021-03-01 08:00:00 10.4 4 Este 13 Este 0 -- -- 90
2021-03-01 07:00:00 10.7 6 Nordeste 16 Este 0.2 -- -- 88
2021-03-01 06:00:00 11 10 Este 17 Este 0 -- -- 86
2021-03-01 05:00:00 11.3 9 Este 18 Este 0 -- -- 84
2021-03-01 04:00:00 11.2 8 Nordeste 13 Este 0 -- -- 85
2021-03-01 03:00:00 11.2 9 Este 20 Este 0 -- -- 81
2021-03-01 02:00:00 11.2 12 Este 21 Este 0 -- -- 80
2021-03-01 01:00:00 10 8 Este 10 Nordeste 0 -- -- 85
2021-03-01 00:00:00 10.1 8 Nordeste 10 Sudeste 0 -- -- 83
2021-02-28 23:00:00 10.8 8 Este 10 Este 0 -- -- 79
2021-02-28 22:00:00 12.2 7 Nordeste 14 Este 0 -- -- 75
2021-02-28 21:00:00 12.9 6 Sudeste 15 Sudeste 0 -- -- 70
2021-02-28 20:00:00 14.1 10 Sudeste 16 Sudeste 0 -- -- 65
2021-02-28 19:00:00 16.6 10 Sudeste 26 Sudeste 0 -- -- 55
2021-02-28 18:00:00 18.3 17 Sudeste 28 Sudeste 0 -- -- 50
2021-02-28 17:00:00 19.1 13 Este 32 Sudeste 0 -- -- 49
2021-02-28 16:00:00 19.3 17 Sudeste 31 Sudeste 0 -- -- 48
2021-02-28 15:00:00 18.9 19 Sudeste 37 Este 0 -- -- 48
2021-02-28 14:00:00 18.5 20 Sudeste 31 Este 0 -- -- 52
2021-02-28 13:00:00 17.7 18 Este 31 Este 0 -- -- 59
2021-02-28 12:00:00 16.3 21 Este 32 Nordeste 0 -- -- 63
2021-02-28 11:00:00 14.6 19 Este 34 Este 0 -- -- 70
2021-02-28 10:00:00 11.6 17 Este 26 Este 0 -- -- 82
2021-02-28 09:00:00 9.9 14 Este 21 Este 0 -- -- 89
2021-02-28 08:00:00 8.6 13 Este 23 Este 0 -- -- 89
2021-02-28 07:00:00 9 8 Este 18 Este 0 -- -- 87
2021-02-28 06:00:00 9.7 12 Este 16 Este 0 -- -- 86
2021-02-28 05:00:00 10.1 9 Este 15 Este 0 -- -- 84
2021-02-28 04:00:00 9.1 5 Este 10 Nordeste 0 -- -- 87
2021-02-28 03:00:00 9.1 7 Nordeste 9 Nordeste 0 -- -- 87
2021-02-28 02:00:00 9.6 8 Este 15 Este 0 -- -- 85
2021-02-28 01:00:00 9.9 11 Este 15 Este 0 -- -- 84
2021-02-28 00:00:00 10.1 10 Este 14 Este 0 -- -- 84
2021-02-27 23:00:00 10.5 7 Nordeste 10 Este 0 -- -- 82
2021-02-27 22:00:00 11.5 8 Este 12 Este 0 -- -- 84
2021-02-27 21:00:00 11.9 7 Este 11 Este 0 -- -- 82
2021-02-27 20:00:00 13.9 9 Nordeste 13 Este 0 -- -- 74
2021-02-27 19:00:00 15 9 Este 14 Sudeste 0 -- -- 70
2021-02-27 18:00:00 16.1 11 Este 17 Este 0 -- -- 66
2021-02-27 17:00:00 16.5 12 Este 20 Este 0 -- -- 65
2021-02-27 16:00:00 17.1 13 Este 24 Este 0 -- -- 60
2021-02-27 15:00:00 16.7 13 Este 19 Este 0 -- -- 62
2021-02-27 14:00:00 16.1 14 Este 22 Este 0 -- -- 66
2021-02-27 13:00:00 15 15 Este 27 Este 0 -- -- 69
2021-02-27 12:00:00 14.6 17 Este 28 Este 0 -- -- 72
2021-02-27 11:00:00 13 14 Este 26 Este 0 -- -- 78
2021-02-27 10:00:00 10.1 11 Este 21 Este 0 -- -- 93
2021-02-27 09:00:00 7.6 8 Este 14 Nordeste 0 -- -- 92
2021-02-27 08:00:00 7 8 Este 11 Este 0 -- -- 91
2021-02-27 07:00:00 7.3 6 Nordeste 8 Nordeste 0 -- -- 91
2021-02-27 06:00:00 7.6 5 Nordeste 10 Este 0 -- -- 90
2021-02-27 05:00:00 7.9 7 Este 11 Este 0 -- -- 90
2021-02-27 04:00:00 8.2 6 Este 9 Este 0 -- -- 89
2021-02-27 03:00:00 8.7 4 Nordeste 10 Este 0 -- -- 89
2021-02-27 02:00:00 9.1 9 Este 11 Este 0 -- -- 89
2021-02-27 01:00:00 9.7 5 Este 8 Nordeste 0 -- -- 88
2021-02-27 00:00:00 10 5 Este 9 Nordeste 0 -- -- 86
2021-02-26 23:00:00 10.7 6 Norte 8 Norte 0 -- -- 85
2021-02-26 22:00:00 11.5 5 Nordeste 9 Nordeste 0 -- -- 81
2021-02-26 21:00:00 12.6 8 Este 10 Este 0 -- -- 77
2021-02-26 20:00:00 14 6 Sudeste 10 Sudeste 0 -- -- 72
2021-02-26 19:00:00 16.4 5 Sudeste 18 Este 0 -- -- 63
2021-02-26 18:00:00 17.9 11 Este 23 Este 0 -- -- 54
2021-02-26 17:00:00 18.5 15 Sudeste 25 Este 0 -- -- 51
2021-02-26 16:00:00 19 13 Este 22 Este 0 -- -- 51
2021-02-26 15:00:00 19.1 13 Sudeste 21 Sudeste 0 -- -- 51
2021-02-26 14:00:00 18.7 8 Nordeste 17 Nordeste 0 -- -- 58
2021-02-26 13:00:00 16.9 13 Este 22 Este 0 -- -- 65
2021-02-26 12:00:00 15.8 15 Este 27 Nordeste 0 -- -- 66
2021-02-26 11:00:00 13.5 13 Este 24 Este 0 -- -- 75
2021-02-26 10:00:00 12.4 7 Este 13 Este 0 -- -- 86
2021-02-26 09:00:00 11.1 5 Este 9 Este 0 -- -- 89
2021-02-26 08:00:00 10.8 3 Este 8 Este 0 -- -- 88
2021-02-26 07:00:00 11.1 3 Nordeste 13 Nordeste 0 -- -- 87
2021-02-26 06:00:00 11.4 9 Este 15 Este 0 -- -- 83
2021-02-26 05:00:00 11.8 6 Este 13 Este 0 -- -- 83
2021-02-26 04:00:00 11.9 6 Nordeste 17 Este 0 -- -- 80
2021-02-26 03:00:00 12.3 8 Este 12 Este 0 -- -- 78
2021-02-26 02:00:00 13.1 8 Este 15 Este 0 -- -- 75
2021-02-26 01:00:00 13.6 5 Este 26 Este 0 -- -- 72
2021-02-26 00:00:00 14.5 13 Este 23 Este 0 -- -- 67
2021-02-25 23:00:00 14.4 12 Este 23 Este 0 -- -- 67
2021-02-25 22:00:00 13.4 8 Sudeste 21 Este 0 -- -- 71
2021-02-25 21:00:00 14.2 15 Este 24 Este 0 -- -- 71
2021-02-25 20:00:00 15.1 14 Este 24 Este 0 -- -- 71
2021-02-25 19:00:00 16.5 12 Este 21 Este 0 -- -- 66
2021-02-25 18:00:00 17.7 13 Este 22 Este 0 -- -- 64
2021-02-25 17:00:00 18.6 15 Este 23 Este 0 -- -- 58
2021-02-25 16:00:00 18.7 15 Este 24 Este 0 -- -- 59
2021-02-25 15:00:00 17.9 11 Nordeste 22 Este 0 -- -- 61
2021-02-25 14:00:00 16.9 14 Nordeste 21 Nordeste 0 -- -- 62
2021-02-25 13:00:00 15.9 14 Nordeste 26 Este 0 -- -- 64
2021-02-25 12:00:00 14.6 18 Este 28 Este 0 -- -- 68
2021-02-25 11:00:00 13.3 19 Este 31 Este 0 -- -- 73
2021-02-25 10:00:00 11.5 17 Este 32 Este 0 -- -- 79
2021-02-25 09:00:00 10.1 19 Este 30 Este 0 -- -- 82
2021-02-25 08:00:00 9.6 13 Este 21 Este 0 -- -- 84
2021-02-25 07:00:00 9.9 12 Este 19 Este 0 -- -- 82
2021-02-25 06:00:00 10.4 12 Este 22 Este 0 -- -- 81
2021-02-25 05:00:00 11.2 14 Este 22 Este 0 -- -- 79
2021-02-25 04:00:00 11.1 14 Este 21 Este 0 -- -- 79
2021-02-25 03:00:00 11.2 10 Este 17 Este 0 -- -- 77
2021-02-25 02:00:00 11.5 12 Este 19 Este 0 -- -- 77
2021-02-25 01:00:00 11.9 10 Este 23 Este 0 -- -- 75
2021-02-25 00:00:00 13 17 Sudeste 27 Sudeste 0 -- -- 71
2021-02-24 23:00:00 12.5 10 Este 19 Sudeste 0 -- -- 72
2021-02-24 22:00:00 13 7 Este 21 Sudeste 0 -- -- 70
2021-02-24 21:00:00 13.8 18 Sudeste 41 Sudeste 0 -- -- 68
2021-02-24 20:00:00 14.8 27 Sudeste 43 Sudeste 0 -- -- 64
2021-02-24 19:00:00 16.2 23 Sudeste 39 Este 0 -- -- 59
2021-02-24 18:00:00 17.8 27 Sudeste 46 Sudeste 0 -- -- 54
2021-02-24 17:00:00 18.9 26 Sudeste 53 Sudeste 0 -- -- 52
2021-02-24 16:00:00 19.3 29 Sudeste 51 Sudeste 0 -- -- 52
2021-02-24 15:00:00 19.2 35 Este 53 Este 0 -- -- 53
2021-02-24 14:00:00 19 35 Este 57 Este 0 -- -- 53
2021-02-24 13:00:00 18.3 39 Sudeste 57 Sudeste 0 -- -- 55
2021-02-24 12:00:00 16.1 25 Este 39 Este 0 -- -- 61
2021-02-24 11:00:00 13.7 25 Este 40 Este 0 -- -- 65
2021-02-24 10:00:00 10.8 23 Este 38 Este 0 -- -- 73
2021-02-24 09:00:00 8 19 Este 30 Este 0 -- -- 83
2021-02-24 08:00:00 7.3 15 Este 32 Este 0 -- -- 85
2021-02-24 07:00:00 8.2 15 Este 29 Este 0 -- -- 82
2021-02-24 06:00:00 8.4 18 Este 28 Este 0 -- -- 82
2021-02-24 05:00:00 8.4 17 Este 24 Este 0 -- -- 83
2021-02-24 04:00:00 8.1 10 Este 15 Nordeste 0 -- -- 84
2021-02-24 03:00:00 8.3 6 Este 16 Nordeste 0 -- -- 83
2021-02-24 02:00:00 8.9 13 Este 17 Este 0 -- -- 81
2021-02-24 01:00:00 8.4 8 Nordeste 10 Nordeste 0 -- -- 80
2021-02-24 00:00:00 9.4 8 Nordeste 13 Este 0 -- -- 76
2021-02-23 23:00:00 9.7 7 Nordeste 17 Sudeste 0 -- -- 74
2021-02-23 22:00:00 11.1 12 Sudeste 22 Sudeste 0 -- -- 67
2021-02-23 21:00:00 11.7 13 Sudeste 22 Sudeste 0 -- -- 66
2021-02-23 20:00:00 13 10 Sudeste 16 Este 0 -- -- 64
2021-02-23 19:00:00 16.5 11 Este 22 Este 0 -- -- 48
2021-02-23 18:00:00 18.6 12 Este 26 Este 0 -- -- 42
2021-02-23 17:00:00 18.9 14 Este 29 Este 0 -- -- 42
2021-02-23 16:00:00 18.7 15 Este 26 Este 0 -- -- 43
2021-02-23 15:00:00 18.4 14 Este 27 Este 0 -- -- 44
2021-02-23 14:00:00 17 16 Este 28 Este 0 -- -- 55
2021-02-23 13:00:00 15.6 15 Este 31 Este 0 -- -- 62
2021-02-23 12:00:00 13.2 18 Este 34 Este 0 -- -- 68
2021-02-23 11:00:00 10.9 21 Este 30 Este 0 -- -- 73
2021-02-23 10:00:00 9.1 13 Este 26 Este 0 -- -- 80
2021-02-23 09:00:00 6.8 11 Este 19 Este 0 -- -- 92
2021-02-23 08:00:00 5.2 9 Este 15 Este 0 -- -- 92
2021-02-23 07:00:00 5.5 7 Este 18 Este 0 -- -- 92
2021-02-23 06:00:00 5.7 9 Este 15 Este 0 -- -- 92
2021-02-23 05:00:00 6 8 Nordeste 13 Nordeste 0 -- -- 91
2021-02-23 04:00:00 6.1 5 Nordeste 8 Nordeste 0 -- -- 91
2021-02-23 03:00:00 6.3 6 Este 9 Nordeste 0 -- -- 90
2021-02-23 02:00:00 7.1 5 Nordeste 6 Norte 0 -- -- 89
2021-02-23 01:00:00 7.7 5 Este 6 Nordeste 0 -- -- 88
2021-02-23 00:00:00 9 3 Sur 10 Oeste 0 -- -- 85
2021-02-22 23:00:00 10.2 9 Oeste 10 Sudoeste 0 -- -- 85
2021-02-22 22:00:00 10.9 4 Sudoeste 12 Sur 0 -- -- 79
2021-02-22 21:00:00 11.6 6 Sur 13 Sudoeste 0 -- -- 77
2021-02-22 20:00:00 12.9 9 Sudoeste 16 Sudoeste 0 -- -- 71
2021-02-22 19:00:00 14.6 10 Sudoeste 20 Sudoeste 0 -- -- 63
2021-02-22 18:00:00 16.2 12 Sudoeste 26 Sudoeste 0 -- -- 53
2021-02-22 17:00:00 16.6 15 Sudoeste 27 Sudoeste 0 -- -- 50
2021-02-22 16:00:00 16.5 12 Sudoeste 31 Oeste 0 -- -- 51
2021-02-22 15:00:00 15.8 11 Oeste 26 Oeste 0 -- -- 56
2021-02-22 14:00:00 14.8 13 Oeste 23 Oeste 0 -- -- 57
2021-02-22 13:00:00 14.1 5 Sudoeste 15 Oeste 0 -- -- 61
2021-02-22 12:00:00 12.4 3 Oeste 10 Sudoeste 0 -- -- 73
2021-02-22 11:00:00 9.5 3 Oeste 9 Oeste 0 -- -- 81
2021-02-22 10:00:00 7.2 3 Este 5 Nordeste 0 -- -- 93
2021-02-22 09:00:00 4.1 0 Calma 6 Nordeste 0 -- -- 92
2021-02-22 08:00:00 4.2 4 Norte 8 Norte 0 -- -- 90
2021-02-22 07:00:00 4.7 3 Sur 8 Sur 0 -- -- 90
2021-02-22 06:00:00 5.8 3 Noroeste 18 Oeste 0 -- -- 89
2021-02-22 05:00:00 6.3 5 Oeste 16 Sudoeste 0 -- -- 89
2021-02-22 04:00:00 6.7 12 Sudoeste 15 Sudoeste 0 -- -- 89
2021-02-22 03:00:00 6.9 4 Sur 8 Sudoeste 0 -- -- 88
2021-02-22 02:00:00 7.8 8 Sudoeste 20 Sudoeste 0 -- -- 86
2021-02-22 01:00:00 8.4 15 Sudoeste 26 Sudoeste 0 -- -- 83
2021-02-22 00:00:00 9.4 17 Oeste 24 Oeste 0 -- -- 78
2021-02-21 23:00:00 9.9 15 Sudoeste 24 Oeste 0 -- -- 78
2021-02-21 22:00:00 10.6 14 Oeste 23 Oeste 0 -- -- 76
2021-02-21 21:00:00 11.3 11 Oeste 23 Sudoeste 0 -- -- 73
2021-02-21 20:00:00 12 13 Oeste 17 Sudoeste 0 -- -- 70
2021-02-21 19:00:00 12.6 9 Oeste 22 Oeste 0 -- -- 66
2021-02-21 18:00:00 13 12 Oeste 27 Oeste 0 -- -- 68
2021-02-21 17:00:00 12.9 17 Oeste 31 Oeste 0 -- -- 71
2021-02-21 16:00:00 12.3 17 Oeste 28 Oeste 0 -- -- 76
2021-02-21 15:00:00 11 5 Oeste 14 Noroeste 0 -- -- 80
2021-02-21 14:00:00 10 9 Norte 34 Norte 1.6 -- -- 89
2021-02-21 13:00:00 10 22 Norte 37 Noroeste 1.6 -- -- 86
2021-02-21 12:00:00 12.9 5 Noroeste 9 Noroeste 0.4 -- -- 88
2021-02-21 11:00:00 12.5 2 Sudoeste 13 Sudoeste 1.4 -- -- 88
2021-02-21 10:00:00 12.4 8 Sudoeste 35 Sudoeste 1.8 -- -- 87
2021-02-21 09:00:00 13.5 4 Sudeste 21 Sur 0 -- -- 77
2021-02-21 08:00:00 14.4 17 Sur 27 Sur 0 -- -- 69
2021-02-21 07:00:00 13.8 9 Sudeste 20 Sudeste 0 -- -- 70
2021-02-21 06:00:00 14 13 Sudeste 26 Sur 0 -- -- 68
2021-02-21 05:00:00 15.4 17 Sur 30 Sur 0 -- -- 60
2021-02-21 04:00:00 15.3 14 Sur 27 Sur 0 -- -- 57
2021-02-21 03:00:00 14.6 5 Sur 27 Sur 0 -- -- 59
2021-02-21 02:00:00 13.6 17 Sudeste 25 Sur 0 -- -- 63
2021-02-21 01:00:00 11.3 6 Este 12 Este 0 -- -- 76
2021-02-21 00:00:00 11.9 2 Este 8 Noroeste 0 -- -- 73
2021-02-20 23:00:00 13.1 6 Sudeste 22 Sudeste 0 -- -- 68
2021-02-20 22:00:00 13.6 14 Sudeste 20 Sudeste 0 -- -- 69
2021-02-20 21:00:00 14.4 14 Sudeste 18 Sudeste 0 -- -- 68
2021-02-20 20:00:00 15.3 10 Sudeste 13 Sur 0 -- -- 65
2021-02-20 19:00:00 17.3 8 Sudeste 23 Sudoeste 0 -- -- 58
2021-02-20 18:00:00 20.4 14 Sur 31 Sur 0 -- -- 43
2021-02-20 17:00:00 22 17 Sur 32 Sudoeste 0 -- -- 33
2021-02-20 16:00:00 22.2 18 Sudoeste 33 Sur 0 -- -- 27
2021-02-20 15:00:00 21.2 14 Sur 32 Sudoeste 0 -- -- 36
2021-02-20 14:00:00 20.2 12 Sur 19 Sur 0 -- -- 45
2021-02-20 13:00:00 17.6 6 Este 17 Este 0 -- -- 58
2021-02-20 12:00:00 16.1 9 Este 16 Este 0 -- -- 62
2021-02-20 11:00:00 13.3 12 Este 22 Este 0 -- -- 75
2021-02-20 10:00:00 10.6 13 Este 22 Este 0 -- -- 87
2021-02-20 09:00:00 7.9 7 Este 11 Este 0 -- -- 93
2021-02-20 08:00:00 7.8 4 Nordeste 10 Este 0 -- -- 92
2021-02-20 07:00:00 8.2 6 Este 9 Este 0 -- -- 92
2021-02-20 06:00:00 8.8 6 Este 10 Sudeste 0 -- -- 92
2021-02-20 05:00:00 9.5 8 Este 10 Este 0 -- -- 91
2021-02-20 04:00:00 10.1 5 Este 10 Este 0 -- -- 91
2021-02-20 03:00:00 10.5 3 Este 9 Este 0 -- -- 91
2021-02-20 02:00:00 10.2 5 Nordeste 9 Nordeste 0 -- -- 90
2021-02-20 01:00:00 10.7 2 Este 8 Este 0 -- -- 89
2021-02-20 00:00:00 10.7 6 Sudeste 10 Sudeste 0 -- -- 89
2021-02-19 23:00:00 11.1 2 Sur 10 Sudeste 0 -- -- 87
2021-02-19 22:00:00 12.4 7 Sur 10 Sudeste 0 -- -- 86
2021-02-19 21:00:00 13.3 4 Sudeste 6 Sudeste 0 -- -- 85
2021-02-19 20:00:00 13.6 2 Norte 3 Noroeste 0 -- -- 80
2021-02-19 19:00:00 15.3 2 Noroeste 10 Oeste 0 -- -- 74
2021-02-19 18:00:00 16.1 8 Oeste 17 Noroeste 0 -- -- 68
2021-02-19 17:00:00 16.6 12 Oeste 24 Oeste 0 -- -- 66
2021-02-19 16:00:00 16.6 12 Oeste 23 Oeste 0 -- -- 65
2021-02-19 15:00:00 16 10 Oeste 18 Oeste 0 -- -- 69
2021-02-19 14:00:00 15 3 Nordeste 14 Sudeste 0 -- -- 75
2021-02-19 13:00:00 13.3 8 Sudeste 15 Este 0 -- -- 82
2021-02-19 12:00:00 12.2 13 Este 20 Este 0 -- -- 92
2021-02-19 11:00:00 11.1 14 Sudeste 19 Sudeste 0 -- -- 93
2021-02-19 10:00:00 10.8 12 Este 17 Este 0 -- -- 94
2021-02-19 09:00:00 10.4 8 Este 17 Este 0 -- -- 94
2021-02-19 08:00:00 9.8 10 Este 16 Este 0 -- -- 94
2021-02-19 07:00:00 9.2 10 Este 18 Este 0 -- -- 94
2021-02-19 06:00:00 8.7 10 Este 17 Este 0 -- -- 94
2021-02-19 05:00:00 9.1 9 Este 15 Este 0 -- -- 93
2021-02-19 04:00:00 9.1 10 Este 15 Este 0 -- -- 93
2021-02-19 03:00:00 8.7 7 Este 13 Este 0 -- -- 92
2021-02-19 02:00:00 8.9 7 Este 12 Este 0 -- -- 92
2021-02-19 01:00:00 9.3 8 Este 10 Este 0 -- -- 91
2021-02-19 00:00:00 10 5 Nordeste 9 Nordeste 0 -- -- 91
2021-02-18 23:00:00 9.6 3 Noroeste 9 Sudoeste 0 -- -- 89
2021-02-18 22:00:00 10.3 4 Este 7 Sudeste 0 -- -- 88
2021-02-18 21:00:00 11 5 Este 8 Este 0 -- -- 87
2021-02-18 20:00:00 12.9 0 Calma 3 Norte 0 -- -- 81
2021-02-18 19:00:00 16.3 2 Sudoeste 7 Sudoeste 0 -- -- 73
2021-02-18 18:00:00 17.4 4 Sudoeste 10 Sudoeste 0 -- -- 67
2021-02-18 17:00:00 17 5 Sur 13 Sur 0 -- -- 68
2021-02-18 16:00:00 16.3 4 Sudoeste 13 Sudoeste 0 -- -- 72
2021-02-18 15:00:00 14.8 4 Oeste 10 Sudoeste 0 -- -- 79
2021-02-18 14:00:00 13.1 5 Oeste 11 Sudoeste 0 -- -- 90
2021-02-18 13:00:00 11.6 4 Oeste 12 Oeste 0 -- -- 93
2021-02-18 12:00:00 10.3 5 Sudoeste 9 Sudoeste 0 -- -- 93
2021-02-18 11:00:00 9.7 0 Calma 5 Nordeste 0 -- -- 93
2021-02-18 10:00:00 9.3 0 Calma 7 Nordeste 0 -- -- 93
2021-02-18 09:00:00 9 4 Este 8 Este 0 -- -- 93
2021-02-18 08:00:00 8.6 3 Nordeste 6 Este 0 -- -- 93
2021-02-18 07:00:00 7.7 4 Este 6 Este 0 -- -- 93
2021-02-18 06:00:00 6.5 0 Calma 6 Este 0 -- -- 92
2021-02-18 05:00:00 6.3 4 Este 7 Este 0 -- -- 91
2021-02-18 04:00:00 7.3 4 Este 6 Este 0 -- -- 90
2021-02-18 03:00:00 8 0 Calma 6 Nordeste 0 -- -- 89
2021-02-18 02:00:00 9.2 4 Norte 9 Sur 0 -- -- 89
2021-02-18 01:00:00 9.2 5 Sudeste 7 Sudeste 0 -- -- 88
2021-02-18 00:00:00 10.2 4 Oeste 6 Oeste 0 -- -- 85
2021-02-17 23:00:00 11 0 Calma 8 Sur 0 -- -- 81
2021-02-17 22:00:00 12.7 2 Noroeste 8 Sudoeste 0 -- -- 74
2021-02-17 21:00:00 16.7 8 Oeste 10 Oeste 0 -- -- 59
2021-02-17 20:00:00 16.5 8 Sudoeste 9 Sudoeste 0 -- -- 62
2021-02-17 19:00:00 20.5 4 Sudoeste 6 Sur 0 -- -- 52
2021-02-17 18:00:00 22.8 0 Calma 6 Sur 0 -- -- 39
2021-02-17 17:00:00 23.5 4 Sudeste 8 Este 0 -- -- 38
2021-02-17 16:00:00 22.8 4 Este 11 Este 0 -- -- 40
2021-02-17 15:00:00 21.3 9 Este 21 Este 0 -- -- 45
2021-02-17 14:00:00 20.9 11 Este 21 Este 0 -- -- 46
2021-02-17 13:00:00 17.7 15 Este 27 Este 0 -- -- 53
2021-02-17 12:00:00 15.3 16 Este 25 Nordeste 0 -- -- 62
2021-02-17 11:00:00 12.1 14 Este 20 Nordeste 0 -- -- 77
2021-02-17 10:00:00 9 12 Este 18 Este 0 -- -- 88
2021-02-17 09:00:00 7.1 7 Este 16 Este 0 -- -- 92
2021-02-17 08:00:00 6.4 8 Este 12 Este 0 -- -- 91
2021-02-17 07:00:00 6.8 8 Este 13 Este 0 -- -- 91
2021-02-17 06:00:00 7.1 8 Este 14 Este 0 -- -- 91
2021-02-17 05:00:00 7.1 8 Este 10 Este 0 -- -- 90
2021-02-17 04:00:00 7.4 8 Este 10 Este 0 -- -- 90
2021-02-17 03:00:00 8.2 9 Este 11 Este 0 -- -- 89
2021-02-17 02:00:00 8.4 7 Sudeste 10 Este 0 -- -- 88
2021-02-17 01:00:00 9 5 Nordeste 9 Nordeste 0 -- -- 87
2021-02-17 00:00:00 8.8 4 Nordeste 6 Nordeste 0 -- -- 86
2021-02-16 23:00:00 9.7 3 Este 5 Este 0 -- -- 85
2021-02-16 22:00:00 11.3 4 Nordeste 5 Nordeste 0 -- -- 81
2021-02-16 21:00:00 12.3 0 Calma 5 Oeste 0 -- -- 77
2021-02-16 20:00:00 14.8 4 Sudoeste 6 Noroeste 0 -- -- 67
2021-02-16 19:00:00 18.9 5 Noroeste 6 Noroeste 0 -- -- 52
2021-02-16 18:00:00 20.8 2 Oeste 6 Sudeste 0 -- -- 41
2021-02-16 17:00:00 21 3 Sur 6 Sur 0 -- -- 40
2021-02-16 16:00:00 20.7 3 Sudeste 13 Norte 0 -- -- 40
2021-02-16 15:00:00 19.8 4 Este 13 Nordeste 0 -- -- 44
2021-02-16 14:00:00 18.3 8 Este 19 Este 0 -- -- 50
2021-02-16 13:00:00 16.5 10 Este 18 Este 0 -- -- 56
2021-02-16 12:00:00 14.8 13 Este 25 Este 0 -- -- 60
2021-02-16 11:00:00 12.8 17 Este 27 Este 0 -- -- 68
2021-02-16 10:00:00 10.8 10 Este 18 Este 0 -- -- 75
2021-02-16 09:00:00 7.7 8 Este 13 Este 0 -- -- 88
2021-02-16 08:00:00 6.4 7 Nordeste 10 Este 0 -- -- 88
2021-02-16 07:00:00 6.9 8 Nordeste 13 Este 0 -- -- 87
2021-02-16 06:00:00 7.7 8 Este 15 Este 0 -- -- 84
2021-02-16 05:00:00 7.8 8 Este 13 Nordeste 0 -- -- 85
2021-02-16 04:00:00 7.9 6 Nordeste 10 Este 0 -- -- 84
2021-02-16 03:00:00 8.2 5 Nordeste 10 Este 0 -- -- 83
2021-02-16 02:00:00 9.1 7 Este 13 Este 0 -- -- 80
2021-02-16 01:00:00 10 9 Este 18 Este 0 -- -- 76
2021-02-16 00:00:00 10.3 9 Este 16 Este 0 -- -- 75
2021-02-15 23:00:00 10.9 11 Este 17 Este 0 -- -- 72
2021-02-15 22:00:00 11.9 11 Nordeste 20 Este 0 -- -- 69
2021-02-15 21:00:00 12.6 10 Este 21 Este 0 -- -- 67
2021-02-15 20:00:00 13.9 13 Este 19 Este 0 -- -- 66
2021-02-15 19:00:00 16.6 12 Este 26 Este 0 -- -- 57
2021-02-15 18:00:00 19.2 15 Este 27 Este 0 -- -- 51
2021-02-15 17:00:00 20.4 19 Este 31 Nordeste 0 -- -- 47
2021-02-15 16:00:00 21.2 15 Este 28 Este 0 -- -- 46
2021-02-15 15:00:00 20.7 19 Este 31 Este 0 -- -- 48
2021-02-15 14:00:00 19.8 22 Este 35 Este 0 -- -- 51
2021-02-15 13:00:00 18.8 22 Este 36 Este 0 -- -- 54
2021-02-15 12:00:00 16.4 22 Este 37 Este 0 -- -- 60
2021-02-15 11:00:00 14.4 26 Este 39 Este 0 -- -- 63
2021-02-15 10:00:00 12.5 21 Este 38 Este 0 -- -- 69
2021-02-15 09:00:00 10.3 21 Este 34 Este 0 -- -- 76
2021-02-15 08:00:00 9.7 19 Este 33 Este 0 -- -- 79
2021-02-15 07:00:00 9.8 21 Este 34 Este 0 -- -- 78
2021-02-15 06:00:00 10.3 21 Este 37 Este 0 -- -- 75
2021-02-15 05:00:00 10.6 22 Este 31 Este 0 -- -- 71
2021-02-15 04:00:00 10.9 17 Este 29 Este 0 -- -- 71
2021-02-15 03:00:00 11.1 19 Este 27 Nordeste 0 -- -- 71
2021-02-15 02:00:00 11.2 17 Este 24 Este 0 -- -- 71
2021-02-15 01:00:00 11.4 17 Este 27 Este 0 -- -- 72
2021-02-15 00:00:00 11.6 16 Este 24 Este 0 -- -- 73
2021-02-14 23:00:00 11.9 10 Este 20 Este 0 -- -- 72
2021-02-14 22:00:00 12.7 13 Este 19 Este 0 -- -- 66
2021-02-14 21:00:00 13.2 9 Nordeste 18 Este 0 -- -- 65
2021-02-14 20:00:00 14.8 13 Este 17 Este 0 -- -- 63
2021-02-14 19:00:00 17.8 11 Este 21 Este 0 -- -- 57
2021-02-14 18:00:00 20.5 13 Este 27 Este 0 -- -- 45
2021-02-14 17:00:00 21.4 17 Este 32 Este 0 -- -- 39
2021-02-14 16:00:00 21.3 18 Este 31 Este 0 -- -- 44
2021-02-14 15:00:00 21.1 19 Este 29 Este 0 -- -- 45
2021-02-14 14:00:00 19.8 20 Este 32 Nordeste 0 -- -- 51
2021-02-14 13:00:00 17.9 24 Este 40 Este 0 -- -- 56
2021-02-14 12:00:00 15.8 27 Este 44 Este 0 -- -- 60
2021-02-14 11:00:00 13.6 23 Este 35 Este 0 -- -- 70
2021-02-14 10:00:00 9.8 15 Nordeste 23 Nordeste 0 -- -- 85
2021-02-14 09:00:00 7.1 9 Este 14 Este 0 -- -- 92
2021-02-14 08:00:00 6.1 8 Nordeste 13 Nordeste 0 -- -- 91
2021-02-14 07:00:00 6 7 Nordeste 12 Este 0 -- -- 91
2021-02-14 06:00:00 6.7 6 Nordeste 10 Nordeste 0 -- -- 91
2021-02-14 05:00:00 6.5 7 Este 9 Este 0 -- -- 91
2021-02-14 04:00:00 6.8 6 Este 9 Nordeste 0 -- -- 90
2021-02-14 03:00:00 7.6 0 Calma 11 Este 0 -- -- 90
2021-02-14 02:00:00 8.1 10 Este 12 Este 0 -- -- 91
2021-02-14 01:00:00 8.5 6 Nordeste 8 Nordeste 0 -- -- 90
2021-02-14 00:00:00 9.3 5 Nordeste 12 Este 0 -- -- 90
2021-02-13 23:00:00 9.7 9 Este 11 Este 0 -- -- 89
2021-02-13 22:00:00 11.1 4 Nordeste 8 Nordeste 0 -- -- 87
2021-02-13 21:00:00 12.1 4 Nordeste 7 Norte 0 -- -- 84
2021-02-13 20:00:00 13.5 2 Este 3 Este 0 -- -- 81
2021-02-13 19:00:00 18.1 0 Calma 10 Sudeste 0 -- -- 68
2021-02-13 18:00:00 18.9 7 Sudeste 13 Este 0 -- -- 57
2021-02-13 17:00:00 19.3 5 Sudeste 10 Sur 0 -- -- 52
2021-02-13 16:00:00 18.8 5 Sudeste 12 Sudeste 0 -- -- 56
2021-02-13 15:00:00 17.9 5 Este 17 Este 0 -- -- 55
2021-02-13 14:00:00 16.7 7 Este 16 Este 0 -- -- 64
2021-02-13 13:00:00 15.8 9 Este 14 Este 0 -- -- 67
2021-02-13 08:00:00 -- -- -- -- -- -- -- -- --
2021-02-13 07:00:00 6.7 5 Este 9 Este 0 -- -- 90
2021-02-13 06:00:00 7.4 3 Norte 6 Norte 0 -- -- 90
2021-02-13 05:00:00 7.4 2 Norte 5 Nordeste 0 -- -- 90
2021-02-13 04:00:00 7.9 4 Nordeste 8 Norte 0 -- -- 89
2021-02-13 03:00:00 8.6 3 Norte 6 Nordeste 0 -- -- 87
2021-02-13 02:00:00 8.9 3 Nordeste 6 Norte 0 -- -- 86
2021-02-13 01:00:00 9.7 3 Nordeste 10 Norte 0 -- -- 83
2021-02-13 00:00:00 10.5 5 Nordeste 11 Norte 0 -- -- 81
2021-02-12 23:00:00 11.1 10 Norte 13 Nordeste 0 -- -- 79
2021-02-12 22:00:00 11.8 8 Este 10 Norte 0 -- -- 77
2021-02-12 21:00:00 12.9 4 Nordeste 11 Norte 0 -- -- 71
2021-02-12 20:00:00 14.6 10 Norte 12 Norte 0 -- -- 62
2021-02-12 19:00:00 17.6 8 Norte 10 Norte 0 -- -- 54
2021-02-12 18:00:00 20.3 5 Norte 19 Noroeste 0 -- -- 45
2021-02-12 17:00:00 20.4 13 Noroeste 22 Noroeste 0 -- -- 44
2021-02-12 16:00:00 20.5 10 Noroeste 21 Norte 0 -- -- 48
2021-02-12 15:00:00 20 12 Norte 22 Noroeste 0 -- -- 50
2021-02-12 14:00:00 19.4 13 Noroeste 19 Noroeste 0 -- -- 53
2021-02-12 13:00:00 18.4 10 Noroeste 21 Norte 0 -- -- 57
2021-02-12 12:00:00 17.2 14 Noroeste 22 Noroeste 0 -- -- 64
2021-02-12 11:00:00 15.9 13 Noroeste 20 Noroeste 0 -- -- 74
2021-02-12 10:00:00 14.4 14 Oeste 19 Sudoeste 0 -- -- 91
2021-02-12 09:00:00 13.7 8 Sudoeste 17 Sudoeste 0 -- -- 92
2021-02-12 08:00:00 14.3 9 Sudoeste 19 Sudoeste 0 -- -- 92
2021-02-12 07:00:00 14.5 14 Sudoeste 22 Sudoeste 0.4 -- -- 92
2021-02-12 06:00:00 14.5 10 Sudoeste 14 Sudoeste 0 -- -- 91
2021-02-12 05:00:00 14.6 8 Sudoeste 17 Sudoeste 0 -- -- 91
2021-02-12 04:00:00 14.5 9 Sudoeste 15 Sudoeste 0 -- -- 90
2021-02-12 03:00:00 14.5 7 Sudoeste 16 Oeste 0 -- -- 90
2021-02-12 02:00:00 14.5 10 Sudoeste 17 Sudoeste 0 -- -- 90
2021-02-12 01:00:00 14.3 9 Oeste 12 Oeste 0 -- -- 90
2021-02-12 00:00:00 14.2 5 Sudoeste 13 Sudoeste 0 -- -- 88
2021-02-11 23:00:00 14.6 9 Oeste 13 Sudoeste 0 -- -- 87
2021-02-11 22:00:00 15.1 5 Sudoeste 10 Oeste 0 -- -- 86
2021-02-11 21:00:00 15.6 7 Oeste 14 Oeste 0 -- -- 84
2021-02-11 20:00:00 16.1 3 Sudeste 6 Sudeste 0 -- -- 88
2021-02-11 19:00:00 16.7 0 Calma 6 Sur 0 -- -- 85
2021-02-11 18:00:00 17.2 3 Sur 5 Sur 0 -- -- 79
2021-02-11 17:00:00 17.4 2 Sur 8 Sudeste 0 -- -- 75
2021-02-11 16:00:00 17.2 4 Oeste 8 Oeste 0 -- -- 77
2021-02-11 15:00:00 16.3 5 Noroeste 10 Noroeste 0 -- -- 82
2021-02-11 14:00:00 16.4 7 Noroeste 12 Noroeste 0 -- -- 81
2021-02-11 13:00:00 17 3 Norte 10 Oeste 0 -- -- 82
2021-02-11 12:00:00 15.8 2 Sudeste 7 Sudoeste 0 -- -- 88
2021-02-11 11:00:00 14.7 0 Calma 6 Sudoeste 0 -- -- 93
2021-02-11 10:00:00 14.1 4 Sudoeste 9 Sudoeste 0 -- -- 93
2021-02-11 09:00:00 13.9 3 Oeste 5 Oeste 0 -- -- 93
2021-02-11 08:00:00 14.2 4 Oeste 6 Oeste 0 -- -- 93
2021-02-11 07:00:00 14.3 4 Sudoeste 9 Sudoeste 0 -- -- 93
2021-02-11 06:00:00 14.4 6 Sudoeste 10 Sudoeste 0 -- -- 92
2021-02-11 05:00:00 14.4 7 Sudoeste 13 Sudoeste 0 -- -- 92
2021-02-11 04:00:00 14.5 6 Sudoeste 13 Sudoeste 0 -- -- 92
2021-02-11 03:00:00 14.5 9 Sudoeste 13 Sudoeste 0 -- -- 91
2021-02-11 02:00:00 14.7 9 Sudoeste 25 Oeste 0 -- -- 90
2021-02-11 01:00:00 14.9 13 Oeste 20 Oeste 0 -- -- 91
2021-02-11 00:00:00 15 10 Oeste 18 Sudoeste 0 -- -- 91
2021-02-10 23:00:00 15.2 13 Sudoeste 25 Sudoeste 0 -- -- 89
2021-02-10 22:00:00 15.4 17 Sudoeste 28 Sudoeste 0 -- -- 87
2021-02-10 21:00:00 15.6 16 Sudoeste 30 Sudoeste 0 -- -- 86
2021-02-10 20:00:00 15.7 19 Sudoeste 31 Sudoeste 0 -- -- 87
2021-02-10 19:00:00 16.2 19 Sudoeste 37 Sudoeste 0 -- -- 84
2021-02-10 18:00:00 17.2 22 Sudoeste 34 Sudoeste 0 -- -- 81
2021-02-10 17:00:00 17.3 23 Sudoeste 35 Oeste 0 -- -- 81
2021-02-10 16:00:00 17.8 23 Oeste 39 Sudoeste 0 -- -- 80
2021-02-10 15:00:00 17.8 27 Oeste 40 Oeste 0 -- -- 79
2021-02-10 14:00:00 17.8 25 Oeste 41 Oeste 0 -- -- 78
2021-02-10 13:00:00 17.3 21 Oeste 41 Oeste 0 -- -- 81
2021-02-10 12:00:00 16.7 30 Oeste 49 Oeste 0 -- -- 82
2021-02-10 11:00:00 15.9 25 Oeste 53 Sudoeste 0 -- -- 84
2021-02-10 10:00:00 15 31 Oeste 47 Sudoeste 0 -- -- 87
2021-02-10 09:00:00 14.6 26 Sudoeste 45 Sudoeste 0 -- -- 87
2021-02-10 08:00:00 14.6 28 Sudoeste 44 Sudoeste 0 -- -- 86
2021-02-10 07:00:00 14.4 23 Oeste 44 Sudoeste 0.4 -- -- 88
2021-02-10 06:00:00 14 18 Sudoeste 37 Sudoeste 0 -- -- 87
2021-02-10 05:00:00 13.7 19 Sudoeste 30 Sudoeste 0 -- -- 87
2021-02-10 04:00:00 13.1 17 Sudoeste 24 Sudoeste 0 -- -- 90
2021-02-10 03:00:00 12.1 13 Sudoeste 19 Sudoeste 0 -- -- 92
2021-02-10 02:00:00 12.1 10 Oeste 14 Oeste 0 -- -- 91
2021-02-10 01:00:00 12.6 10 Oeste 22 Sudoeste 0 -- -- 90
2021-02-10 00:00:00 12.9 12 Oeste 22 Sudoeste 0 -- -- 89
2021-02-09 23:00:00 13.3 17 Sudoeste 29 Oeste 0 -- -- 85
2021-02-09 22:00:00 13.6 19 Oeste 33 Oeste 0 -- -- 85
2021-02-09 21:00:00 13.6 17 Sudoeste 35 Oeste 0 -- -- 85
2021-02-09 20:00:00 14.3 24 Sudoeste 42 Sudoeste 0 -- -- 88
2021-02-09 19:00:00 14.2 27 Sudoeste 47 Oeste 1 -- -- 88
2021-02-09 18:00:00 14.7 23 Sudoeste 46 Sudoeste 0 -- -- 84
2021-02-09 17:00:00 15.3 31 Sudoeste 49 Oeste 0 -- -- 80
2021-02-09 16:00:00 14.8 28 Oeste 55 Oeste 0.6 -- -- 83
2021-02-09 15:00:00 14 26 Sudoeste 53 Sudoeste 2.2 -- -- 88
2021-02-09 14:00:00 13.8 35 Oeste 57 Sudoeste 1 -- -- 88
2021-02-09 13:00:00 15.1 28 Sudoeste 52 Sudoeste 0 -- -- 80
2021-02-09 12:00:00 15.5 27 Sudoeste 45 Sudoeste 0 -- -- 80
2021-02-09 11:00:00 13.8 22 Sudoeste 40 Sudoeste 0.2 -- -- 86
2021-02-09 10:00:00 11.5 9 Sur 15 Sur 0 -- -- 92
2021-02-09 09:00:00 11.1 4 Oeste 17 Sudoeste 0 -- -- 92
2021-02-09 08:00:00 11 7 Sudoeste 13 Sudoeste 0 -- -- 93
2021-02-09 07:00:00 10.7 5 Sudoeste 13 Noroeste 0 -- -- 92
2021-02-09 06:00:00 10.9 6 Oeste 13 Oeste 0.2 -- -- 92
2021-02-09 05:00:00 10.5 3 Oeste 5 Oeste 0 -- -- 92
2021-02-09 04:00:00 10.6 3 Sudoeste 7 Oeste 0 -- -- 91
2021-02-09 03:00:00 10.2 4 Sudeste 9 Sur 0 -- -- 90
2021-02-09 02:00:00 10.4 4 Sudoeste 12 Sudoeste 0 -- -- 90
2021-02-09 01:00:00 10.5 9 Sudoeste 14 Sudoeste 0 -- -- 90
2021-02-09 00:00:00 10.2 0 Calma 7 Oeste 0 -- -- 89
2021-02-08 23:00:00 11.4 7 Oeste 20 Sudoeste 0 -- -- 88
2021-02-08 22:00:00 11.9 13 Sudoeste 23 Sudoeste 0 -- -- 86
2021-02-08 21:00:00 12.3 18 Oeste 30 Sudoeste 0 -- -- 83
2021-02-08 20:00:00 12.8 19 Oeste 33 Sudoeste 0 -- -- 81
2021-02-08 19:00:00 13.6 20 Oeste 40 Oeste 0 -- -- 74
2021-02-08 18:00:00 14.9 26 Oeste 39 Oeste 0 -- -- 67
2021-02-08 17:00:00 14.3 13 Oeste 21 Noroeste 0.2 -- -- 77
2021-02-08 16:00:00 14.3 17 Oeste 41 Oeste 0.2 -- -- 76
2021-02-08 15:00:00 14.2 22 Oeste 37 Oeste 0.2 -- -- 75
2021-02-08 14:00:00 16 24 Oeste 40 Oeste 0 -- -- 65
2021-02-08 13:00:00 13.2 22 Oeste 39 Oeste 0.2 -- -- 81
2021-02-08 12:00:00 14 21 Sudoeste 34 Oeste 0 -- -- 75
2021-02-08 11:00:00 12.5 14 Sudoeste 24 Sudoeste 0 -- -- 84
2021-02-08 10:00:00 11.8 14 Sudoeste 22 Sudoeste 0 -- -- 85
2021-02-08 09:00:00 11.1 8 Sudoeste 17 Oeste 0 -- -- 85
2021-02-08 08:00:00 11.5 13 Oeste 28 Oeste 0 -- -- 80
2021-02-08 07:00:00 12.5 22 Oeste 41 Oeste 0 -- -- 76
2021-02-08 06:00:00 13.7 30 Oeste 68 Sudoeste 1.6 -- -- 85
2021-02-08 05:00:00 13.2 26 Sudoeste 50 Sudoeste 2.8 -- -- 91
2021-02-08 04:00:00 12.9 27 Sudoeste 45 Sudoeste 4.6 -- -- 91
2021-02-08 03:00:00 12.6 23 Sudoeste 40 Sudoeste 1.4 -- -- 91
2021-02-08 02:00:00 12.2 14 Sudoeste 28 Sudoeste 0 -- -- 89
2021-02-08 01:00:00 12.1 15 Sudoeste 26 Sudoeste 0 -- -- 88
2021-02-08 00:00:00 11.8 15 Sudoeste 25 Sudoeste 0 -- -- 86
2021-02-07 23:00:00 12 8 Sudoeste 21 Sudoeste 0 -- -- 79
2021-02-07 22:00:00 12.2 8 Sudoeste 20 Sudoeste 0 -- -- 74
2021-02-07 21:00:00 12.3 13 Sudoeste 22 Sudoeste 0 -- -- 71
2021-02-07 20:00:00 12.4 11 Oeste 22 Oeste 0 -- -- 68
2021-02-07 19:00:00 12.5 14 Oeste 27 Oeste 0 -- -- 65
2021-02-07 18:00:00 12.9 19 Oeste 36 Oeste 0 -- -- 59
2021-02-07 17:00:00 13.9 28 Oeste 38 Oeste 0 -- -- 54
2021-02-07 16:00:00 14.7 24 Oeste 36 Oeste 0 -- -- 54
2021-02-07 15:00:00 15.1 19 Oeste 36 Oeste 0 -- -- 50
2021-02-07 14:00:00 14.5 19 Oeste 31 Oeste 0 -- -- 56
2021-02-07 13:00:00 14.2 22 Oeste 32 Oeste 0 -- -- 61
2021-02-07 12:00:00 12.9 12 Oeste 18 Sudoeste 0 -- -- 71
2021-02-07 11:00:00 11.7 11 Oeste 23 Oeste 0 -- -- 78
2021-02-07 10:00:00 10.9 17 Oeste 25 Oeste 0 -- -- 88
2021-02-07 09:00:00 10.3 9 Oeste 17 Sudoeste 0 -- -- 91
2021-02-07 08:00:00 10 9 Sudoeste 15 Sudoeste 0 -- -- 92
2021-02-07 07:00:00 9.8 11 Oeste 16 Sudoeste 0 -- -- 92
2021-02-07 06:00:00 9.9 11 Oeste 17 Sudoeste 0 -- -- 92
2021-02-07 05:00:00 10 6 Sudoeste 12 Sudoeste 0.2 -- -- 92
2021-02-07 04:00:00 10.2 6 Oeste 11 Sudoeste 0 -- -- 92
2021-02-07 03:00:00 10.1 6 Sudoeste 11 Sudoeste 0 -- -- 91
2021-02-07 02:00:00 10.2 6 Oeste 14 Oeste 0 -- -- 90
2021-02-07 01:00:00 10.2 9 Oeste 14 Sudoeste 0 -- -- 89
2021-02-07 00:00:00 10.3 10 Oeste 19 Sudoeste 0 -- -- 89
2021-02-06 23:00:00 10.6 12 Oeste 21 Oeste 0 -- -- 87
2021-02-06 22:00:00 11.1 12 Sudoeste 22 Sudoeste 0 -- -- 82
2021-02-06 21:00:00 11.4 12 Oeste 25 Sudoeste 0 -- -- 82
2021-02-06 20:00:00 11.8 17 Sudoeste 26 Sudoeste 0 -- -- 80
2021-02-06 19:00:00 12.4 18 Oeste 31 Sudoeste 0 -- -- 77
2021-02-06 18:00:00 13.3 19 Oeste 33 Sudoeste 0 -- -- 75
2021-02-06 17:00:00 13.3 18 Sudoeste 36 Sudoeste 0 -- -- 73
2021-02-06 16:00:00 14.1 23 Oeste 40 Oeste 0 -- -- 69
2021-02-06 15:00:00 14.5 21 Oeste 34 Oeste 0 -- -- 69
2021-02-06 14:00:00 13.8 19 Oeste 35 Oeste 0 -- -- 73
2021-02-06 13:00:00 13.5 21 Oeste 34 Oeste 0 -- -- 71
2021-02-06 12:00:00 13.7 20 Sudoeste 31 Oeste 0 -- -- 70
2021-02-06 11:00:00 12.3 18 Sudoeste 27 Sudoeste 0 -- -- 80
2021-02-06 10:00:00 11.4 13 Sudoeste 22 Sudoeste 0 -- -- 85
2021-02-06 09:00:00 10.9 10 Sudoeste 20 Sudoeste 0 -- -- 86
2021-02-06 08:00:00 10.8 11 Sudoeste 23 Sudoeste 0 -- -- 87
2021-02-06 07:00:00 10.5 14 Sudoeste 25 Sudoeste 0 -- -- 87
2021-02-06 06:00:00 10.2 11 Sudoeste 23 Sur 0 -- -- 89
2021-02-06 05:00:00 10.2 14 Sudoeste 29 Sudoeste 0 -- -- 89
2021-02-06 04:00:00 10.4 14 Sudoeste 28 Sudoeste 0 -- -- 89
2021-02-06 03:00:00 11.7 12 Sudoeste 22 Sudoeste 0 -- -- 90
2021-02-06 02:00:00 11.7 9 Sur 22 Sur 0.8 -- -- 88
2021-02-06 01:00:00 11.9 9 Sur 21 Sur 0.8 -- -- 89
2021-02-06 00:00:00 11.9 12 Sur 18 Sur 0.2 -- -- 89
2021-02-05 23:00:00 12 12 Sur 22 Sur 0 -- -- 87
2021-02-05 22:00:00 12.1 11 Sur 23 Sur 0.2 -- -- 87
2021-02-05 21:00:00 12.4 13 Sur 28 Sur 0.2 -- -- 86
2021-02-05 20:00:00 12.9 17 Sur 31 Sur 0 -- -- 82
2021-02-05 19:00:00 12.9 13 Sur 30 Sur 0 -- -- 85
2021-02-05 18:00:00 13.5 10 Sur 17 Sur 0.4 -- -- 86
2021-02-05 17:00:00 13.8 10 Sudeste 19 Sudeste 2 -- -- 87
2021-02-05 16:00:00 14.6 3 Norte 7 Nordeste 0.4 -- -- 85
2021-02-05 15:00:00 14.9 3 Sudeste 14 Nordeste 0 -- -- 84
2021-02-05 14:00:00 14.4 5 Norte 14 Norte 0 -- -- 88
2021-02-05 13:00:00 13.8 7 Noroeste 18 Oeste 2 -- -- 89
2021-02-05 12:00:00 14.4 9 Oeste 16 Sudoeste 0 -- -- 80
2021-02-05 11:00:00 13.6 4 Sur 9 Noroeste 0 -- -- 84
2021-02-05 10:00:00 12 6 Sudoeste 15 Oeste 0 -- -- 91
2021-02-05 09:00:00 10.8 5 Nordeste 10 Sudoeste 0 -- -- 92
2021-02-05 08:00:00 10.7 4 Este 9 Sur 0 -- -- 90
2021-02-05 07:00:00 10.9 5 Sudeste 9 Nordeste 0 -- -- 90
2021-02-05 06:00:00 11.2 4 Sudeste 12 Este 0 -- -- 89
2021-02-05 05:00:00 11.5 10 Este 13 Este 0 -- -- 88
2021-02-05 04:00:00 12.3 5 Nordeste 15 Oeste 0 -- -- 87
2021-02-05 03:00:00 12.5 8 Este 15 Nordeste 0 -- -- 86
2021-02-05 02:00:00 12.1 8 Nordeste 13 Norte 0 -- -- 89
2021-02-05 01:00:00 12.2 5 Nordeste 10 Nordeste 0 -- -- 89
2021-02-05 00:00:00 12.5 5 Norte 15 Nordeste 0 -- -- 87
2021-02-04 23:00:00 13.4 4 Nordeste 18 Este 0 -- -- 87
2021-02-04 22:00:00 13.9 6 Este 17 Este 0 -- -- 86
2021-02-04 21:00:00 14.4 5 Este 12 Este 0 -- -- 84
2021-02-04 20:00:00 14.7 8 Este 10 Este 0 -- -- 82
2021-02-04 19:00:00 15.6 0 Calma 8 Sudoeste 0 -- -- 79
2021-02-04 18:00:00 16.7 4 Sudoeste 16 Sudoeste 0 -- -- 69
2021-02-04 17:00:00 17 9 Sudoeste 25 Sudoeste 0 -- -- 70
2021-02-04 16:00:00 17.8 8 Sudoeste 23 Sudoeste 0 -- -- 63
2021-02-04 15:00:00 18.5 13 Sudoeste 23 Sudoeste 0 -- -- 58
2021-02-04 14:00:00 17.4 14 Sudoeste 26 Sudoeste 0 -- -- 63
2021-02-04 13:00:00 16.5 13 Sudoeste 23 Sudoeste 0 -- -- 68
2021-02-04 12:00:00 16.3 12 Sur 21 Sudeste 0 -- -- 69
2021-02-04 11:00:00 16 12 Sudeste 19 Sudeste 0 -- -- 73
2021-02-04 10:00:00 13.5 11 Este 18 Este 0 -- -- 89
2021-02-04 09:00:00 12.5 6 Este 15 Este 0 -- -- 89
2021-02-04 08:00:00 12.9 7 Este 10 Este 0 -- -- 88
2021-02-04 07:00:00 13 4 Nordeste 7 Este 0 -- -- 90
2021-02-04 06:00:00 13.1 4 Este 8 Sudeste 0 -- -- 90
2021-02-04 05:00:00 13.3 0 Calma 7 Sudeste 0 -- -- 90
2021-02-04 04:00:00 13.4 4 Sudeste 7 Este 0 -- -- 90
2021-02-04 03:00:00 13.4 4 Este 6 Este 0 -- -- 90
2021-02-04 02:00:00 13.4 4 Este 5 Este 0 -- -- 89
2021-02-04 01:00:00 13.6 0 Calma 5 Oeste 0 -- -- 88
2021-02-04 00:00:00 13.9 4 Oeste 8 Sudoeste 0 -- -- 86
2021-02-03 23:00:00 14.4 5 Sudoeste 11 Sur 0 -- -- 83
2021-02-03 22:00:00 14.7 4 Sudoeste 7 Sudoeste 0 -- -- 81
2021-02-03 21:00:00 15 4 Sudoeste 8 Sudoeste 0 -- -- 79
2021-02-03 20:00:00 14.9 4 Sur 6 Sur 0 -- -- 80
2021-02-03 19:00:00 15.5 4 Sudeste 5 Sudeste 0 -- -- 78
2021-02-03 18:00:00 16.3 0 Calma 6 Norte 0 -- -- 68
2021-02-03 17:00:00 16.8 4 Norte 7 Norte 0 -- -- 66
2021-02-03 16:00:00 17.2 3 Norte 9 Oeste 0 -- -- 65
2021-02-03 15:00:00 17.4 6 Noroeste 10 Oeste 0 -- -- 65
2021-02-03 14:00:00 16.6 4 Oeste 11 Sudoeste 0 -- -- 64
2021-02-03 13:00:00 16.8 2 Sudeste 9 Sudeste 0 -- -- 68
2021-02-03 12:00:00 15.8 5 Nordeste 9 Nordeste 0 -- -- 77
2021-02-03 11:00:00 13.5 5 Nordeste 9 Nordeste 0 -- -- 89
2021-02-03 10:00:00 12 5 Nordeste 9 Nordeste 0 -- -- 92
2021-02-03 09:00:00 11 6 Este 8 Este 0 -- -- 91
2021-02-03 08:00:00 12 6 Sudeste 10 Sudeste 0 -- -- 90
2021-02-03 07:00:00 12.5 4 Este 8 Este 0 -- -- 89
2021-02-03 06:00:00 13 2 Sur 6 Sudoeste 0 -- -- 86
2021-02-03 05:00:00 13.3 3 Sudoeste 5 Sudoeste 0 -- -- 84
2021-02-03 04:00:00 13.3 3 Sudoeste 7 Sudoeste 0 -- -- 85
2021-02-03 03:00:00 13.5 4 Sudoeste 8 Sudoeste 0 -- -- 85
2021-02-03 02:00:00 13.7 6 Sudoeste 12 Oeste 0 -- -- 84
2021-02-03 01:00:00 14 9 Sudoeste 14 Sudoeste 0 -- -- 83
2021-02-03 00:00:00 13.3 6 Sudoeste 9 Oeste 0 -- -- 89
2021-02-02 23:00:00 13 3 Sudeste 15 Oeste 0 -- -- 89
2021-02-02 22:00:00 13 0 Calma 6 Este 0 -- -- 88
2021-02-02 21:00:00 13 3 Nordeste 8 Sudeste 0 -- -- 88
2021-02-02 20:00:00 12.7 9 Sudeste 12 Sudeste 0 -- -- 86
2021-02-02 19:00:00 14.5 7 Sudeste 8 Sudeste 0 -- -- 79
2021-02-02 18:00:00 16.7 3 Sudeste 5 Sudeste 0 -- -- 72
2021-02-02 17:00:00 17 0 Calma 5 Sudoeste 0 -- -- 67
2021-02-02 16:00:00 16.6 0 Calma 6 Sur 0 -- -- 69
2021-02-02 15:00:00 16.6 4 Sudeste 10 Sudeste 0 -- -- 73
2021-02-02 14:00:00 16.2 3 Sudeste 9 Este 0 -- -- 75
2021-02-02 13:00:00 14.8 2 Norte 12 Nordeste 0 -- -- 80
2021-02-02 12:00:00 13 8 Este 15 Este 0 -- -- 93
2021-02-02 11:00:00 11.9 10 Este 18 Este 0 -- -- 94
2021-02-02 10:00:00 11.2 11 Este 19 Este 0 -- -- 94
2021-02-02 09:00:00 10.8 14 Este 21 Este 0 -- -- 94
2021-02-02 08:00:00 10.7 10 Este 17 Este 0 -- -- 94
2021-02-02 07:00:00 10.5 9 Este 15 Este 0 -- -- 93
2021-02-02 06:00:00 10.3 6 Este 11 Este 0 -- -- 93
2021-02-02 05:00:00 10.2 6 Este 10 Este 0 -- -- 93
2021-02-02 04:00:00 8.8 4 Este 7 Este 0 -- -- 92
2021-02-02 03:00:00 9.3 0 Calma 4 Norte 0 -- -- 92
2021-02-02 02:00:00 9.1 0 Calma 4 Sudeste 0 -- -- 90
2021-02-02 01:00:00 9.9 2 Sudoeste 5 Oeste 0 -- -- 89
2021-02-02 00:00:00 11.1 3 Oeste 10 Sudoeste 0 -- -- 88
2021-02-01 23:00:00 12.2 5 Sudoeste 17 Sudoeste 0 -- -- 87
2021-02-01 22:00:00 13.6 9 Sudoeste 28 Sudoeste 0 -- -- 82
2021-02-01 21:00:00 14.3 17 Sudoeste 32 Sudoeste 0 -- -- 77
2021-02-01 20:00:00 14.5 17 Sudoeste 29 Sudoeste 0 -- -- 77
2021-02-01 19:00:00 16 14 Sudoeste 26 Sudoeste 0 -- -- 73
2021-02-01 18:00:00 18.1 10 Sudoeste 22 Sur 0 -- -- 63
2021-02-01 17:00:00 17.7 12 Sudoeste 26 Sudoeste 0 -- -- 63
2021-02-01 16:00:00 18.1 15 Sudoeste 28 Sudoeste 0 -- -- 62
2021-02-01 15:00:00 18 14 Sudoeste 26 Sudoeste 0.2 -- -- 63
2021-02-01 14:00:00 17.1 12 Sudoeste 22 Sudoeste 0 -- -- 68
2021-02-01 13:00:00 16.2 8 Oeste 21 Sudoeste 0 -- -- 76
2021-02-01 12:00:00 13.5 11 Oeste 16 Oeste 0 -- -- 94
2021-02-01 11:00:00 12.7 8 Oeste 13 Oeste 0 -- -- 94
2021-02-01 10:00:00 12 4 Oeste 9 Oeste 0 -- -- 94
2021-02-01 09:00:00 11.5 5 Oeste 15 Sudoeste 0 -- -- 93
2021-02-01 08:00:00 11.8 9 Sudoeste 17 Sudoeste 0 -- -- 93
2021-02-01 07:00:00 12.8 12 Sudoeste 17 Sudoeste 0 -- -- 92
2021-02-01 06:00:00 13 11 Sudoeste 17 Sudoeste 0 -- -- 92
2021-02-01 05:00:00 13.4 10 Sudoeste 15 Sudoeste 0 -- -- 92
2021-02-01 04:00:00 13.5 9 Sudoeste 19 Oeste 0 -- -- 91
2021-02-01 03:00:00 14.2 15 Oeste 33 Oeste 0.6 -- -- 90
2021-02-01 02:00:00 14.7 18 Oeste 30 Sudoeste 0 -- -- 87
2021-02-01 01:00:00 14.6 17 Sudoeste 24 Sudoeste 0 -- -- 87
2021-02-01 00:00:00 14.9 17 Oeste 27 Sudoeste 0 -- -- 84